createdAt,value
2023-03-26T00:00:58.596Z,900.9
2023-03-26T00:02:42.296Z,897.5
2023-03-26T00:04:26.019Z,896.1
2023-03-26T00:06:09.716Z,889.3
2023-03-26T00:07:53.425Z,884.4
2023-03-26T00:09:37.102Z,877.8
2023-03-26T00:11:20.855Z,875.2
2023-03-26T00:13:04.510Z,871.2
2023-03-26T00:14:48.200Z,867.2
2023-03-26T00:16:31.909Z,860.1
2023-03-26T00:18:15.675Z,853.3
2023-03-26T00:19:59.311Z,849.7
2023-03-26T00:21:43.079Z,848.2
2023-03-26T00:23:26.705Z,845
2023-03-26T00:25:10.459Z,841.9
2023-03-26T00:26:54.207Z,838.5
2023-03-26T00:28:37.814Z,832.6
2023-03-26T00:30:21.569Z,829.1
2023-03-26T00:32:05.219Z,825
2023-03-26T00:33:49.020Z,819.4
2023-03-26T00:35:32.675Z,817.9
2023-03-26T00:37:16.308Z,817.3
2023-03-26T00:39:00.163Z,815
2023-03-26T00:40:43.730Z,814.8
2023-03-26T00:42:27.428Z,815.2
2023-03-26T00:44:11.107Z,814.6
2023-03-26T00:45:54.833Z,811.9
2023-03-26T00:47:38.542Z,811.8
2023-03-26T00:49:22.370Z,810.3
2023-03-26T00:51:05.955Z,804.2
2023-03-26T00:52:49.642Z,797.6
2023-03-26T00:54:33.356Z,796.3
2023-03-26T00:56:17.061Z,796.5
2023-03-26T00:58:00.725Z,796.4
2023-03-26T00:59:44.488Z,793.5
2023-03-26T01:01:28.141Z,790.1
2023-03-26T01:03:11.889Z,786.9
2023-03-26T01:04:55.539Z,784.9
2023-03-26T01:06:39.310Z,781.3
2023-03-26T01:08:22.956Z,776.8
2023-03-26T01:10:06.800Z,775.2
2023-03-26T01:11:50.437Z,772.4
2023-03-26T01:13:34.047Z,765.2
2023-03-26T01:15:17.808Z,760.4
2023-03-26T01:17:01.653Z,758.5
2023-03-26T01:18:45.287Z,759.3
2023-03-26T01:20:28.967Z,757.8
2023-03-26T01:22:12.659Z,759.5
2023-03-26T01:23:56.365Z,758.5
2023-03-26T01:25:40.053Z,753.5
2023-03-26T01:27:23.757Z,750.9
2023-03-26T01:29:07.394Z,748.5
2023-03-26T01:30:51.120Z,746.3
2023-03-26T01:32:34.792Z,745.1
2023-03-26T01:34:18.517Z,740.6
2023-03-26T01:36:02.192Z,739.4
2023-03-26T01:37:45.890Z,737.4
2023-03-26T01:39:29.721Z,737.5
2023-03-26T01:41:13.302Z,736.1
2023-03-26T01:42:57.113Z,733.4
2023-03-26T01:44:40.708Z,732.7
2023-03-26T01:46:24.446Z,731.7
2023-03-26T01:48:08.189Z,725
2023-03-26T01:49:51.938Z,722.6
2023-03-26T01:51:35.512Z,715.9
2023-03-26T01:53:19.285Z,713.3
2023-03-26T01:55:02.955Z,710.9
2023-03-26T01:56:46.632Z,707.1
2023-03-26T01:58:30.337Z,705.9
2023-03-26T02:00:14.013Z,706
2023-03-26T02:01:57.736Z,703.5
2023-03-26T02:03:41.428Z,701.9
2023-03-26T02:05:25.143Z,702.8
2023-03-26T02:07:08.847Z,700.8
2023-03-26T02:08:52.544Z,695.4
2023-03-26T02:10:36.308Z,691.9
2023-03-26T02:12:19.934Z,688.5
2023-03-26T02:14:03.642Z,689.1
2023-03-26T02:15:47.387Z,691.8
2023-03-26T02:17:31.070Z,695.1
2023-03-26T02:19:14.758Z,693.5
2023-03-26T02:20:58.437Z,691.2
2023-03-26T02:22:42.156Z,688.5
2023-03-26T02:24:25.857Z,685.2
2023-03-26T02:26:09.561Z,682.9
2023-03-26T02:27:53.235Z,686.4
2023-03-26T02:29:36.951Z,685.7
2023-03-26T02:31:20.654Z,683.9
2023-03-26T02:33:04.351Z,681.8
2023-03-26T02:34:48.056Z,682.5
2023-03-26T02:36:31.806Z,679.7
2023-03-26T02:38:15.458Z,676.2
2023-03-26T02:39:59.155Z,674.8
2023-03-26T02:41:42.857Z,672.2
2023-03-26T02:43:26.590Z,670.4
2023-03-26T02:45:10.307Z,667.5
2023-03-26T02:46:54.000Z,665.1
2023-03-26T02:48:37.654Z,661.9
2023-03-26T02:50:21.348Z,659.3
2023-03-26T02:52:05.063Z,659.3
2023-03-26T02:53:48.761Z,656.6
2023-03-26T02:55:32.452Z,656.1
2023-03-26T02:57:16.160Z,652.6
2023-03-26T02:58:59.873Z,650.2
2023-03-26T03:00:43.571Z,649.4
2023-03-26T03:02:27.276Z,648.3
2023-03-26T03:04:10.965Z,643.9
2023-03-26T03:05:54.724Z,642
2023-03-26T03:07:38.374Z,638.6
2023-03-26T03:09:22.096Z,636.1
2023-03-26T03:11:05.814Z,635.8
2023-03-26T03:12:49.494Z,634.1
2023-03-26T03:14:33.187Z,631
2023-03-26T03:16:16.903Z,630.3
2023-03-26T03:18:00.589Z,629.3
2023-03-26T03:19:44.272Z,628
2023-03-26T03:21:27.999Z,625
2023-03-26T03:23:11.698Z,621.7
2023-03-26T03:24:55.389Z,616.8
2023-03-26T03:26:39.118Z,616.3
2023-03-26T03:28:22.792Z,618.1
2023-03-26T03:30:06.515Z,619.1
2023-03-26T03:31:50.184Z,618.7
2023-03-26T03:33:33.936Z,612.6
2023-03-26T03:35:17.611Z,612.1
2023-03-26T03:37:01.350Z,610.9
2023-03-26T03:38:45.007Z,609.9
2023-03-26T03:40:28.707Z,608.6
2023-03-26T03:42:12.413Z,609.1
2023-03-26T03:43:56.137Z,607.9
2023-03-26T03:45:39.791Z,608.6
2023-03-26T03:47:23.503Z,609.3
2023-03-26T03:49:07.223Z,608.6
2023-03-26T03:50:50.922Z,610
2023-03-26T03:52:34.596Z,614
2023-03-26T03:54:18.310Z,615.9
2023-03-26T03:56:02.029Z,614.7
2023-03-26T03:57:45.716Z,614.9
2023-03-26T03:59:29.465Z,613.7
2023-03-26T04:01:13.312Z,612.4
2023-03-26T04:02:56.812Z,611.3
2023-03-26T04:04:40.521Z,605.9
2023-03-26T04:06:24.237Z,607.5
2023-03-26T04:08:07.940Z,608.4
2023-03-26T04:09:51.631Z,609.2
2023-03-26T04:11:35.361Z,610.3
2023-03-26T04:13:19.020Z,608.5
2023-03-26T04:15:02.715Z,608.4
2023-03-26T04:16:46.439Z,606.9
2023-03-26T04:18:30.131Z,604.8
2023-03-26T04:20:13.837Z,602.6
2023-03-26T04:21:57.528Z,600.1
2023-03-26T04:23:41.250Z,599.3
2023-03-26T04:25:24.991Z,599
2023-03-26T04:27:08.643Z,598.7
2023-03-26T04:28:52.342Z,598.5
2023-03-26T04:30:36.046Z,602.1
2023-03-26T04:32:19.765Z,602.3
2023-03-26T04:34:03.469Z,598.9
2023-03-26T04:35:47.156Z,595.1
2023-03-26T04:37:30.860Z,595.3
2023-03-26T04:39:14.562Z,592.7
2023-03-26T04:40:58.267Z,591.2
2023-03-26T04:42:41.993Z,588.6
2023-03-26T04:44:25.682Z,587.5
2023-03-26T04:46:09.377Z,584.1
2023-03-26T04:47:53.075Z,581.8
2023-03-26T04:49:36.781Z,581.7
2023-03-26T04:51:20.488Z,584.2
2023-03-26T04:53:04.189Z,585.7
2023-03-26T04:54:47.944Z,585.9
2023-03-26T04:56:31.599Z,584.6
2023-03-26T04:58:15.303Z,581.9
2023-03-26T04:59:58.991Z,580.9
2023-03-26T05:01:42.710Z,580.8
2023-03-26T05:03:26.423Z,580.4
2023-03-26T05:05:10.094Z,583
2023-03-26T05:06:53.827Z,582.3
2023-03-26T05:08:37.506Z,581.1
2023-03-26T05:10:21.253Z,579.4
2023-03-26T05:12:04.902Z,577.8
2023-03-26T05:13:48.605Z,578
2023-03-26T05:15:32.336Z,577.1
2023-03-26T05:17:16.010Z,575.4
2023-03-26T05:18:59.721Z,574.3
2023-03-26T05:20:43.420Z,570.6
2023-03-26T05:22:27.130Z,567.8
2023-03-26T05:24:10.825Z,568.4
2023-03-26T05:25:54.532Z,569.3
2023-03-26T05:27:38.249Z,567.5
2023-03-26T05:29:21.924Z,567.8
2023-03-26T05:31:05.637Z,568.4
2023-03-26T05:32:49.348Z,571
2023-03-26T05:34:33.083Z,569.7
2023-03-26T05:36:16.791Z,570.2
2023-03-26T05:38:00.445Z,571.6
2023-03-26T05:39:44.155Z,570.9
2023-03-26T05:41:27.899Z,571
2023-03-26T05:43:11.554Z,566.8
2023-03-26T05:44:55.236Z,561.1
2023-03-26T05:46:38.946Z,559.1
2023-03-26T05:48:22.665Z,559.4
2023-03-26T05:50:06.354Z,561.3
2023-03-26T05:51:50.060Z,561.1
2023-03-26T05:53:33.747Z,559.1
2023-03-26T05:55:17.451Z,558.5
2023-03-26T05:57:01.144Z,560.7
2023-03-26T05:58:44.847Z,561.2
2023-03-26T06:00:28.595Z,561.4
2023-03-26T06:02:12.320Z,562.6
2023-03-26T06:03:55.952Z,563
2023-03-26T06:05:39.651Z,562.6
2023-03-26T06:07:23.354Z,561.2
2023-03-26T06:09:07.048Z,559.5
2023-03-26T06:10:50.740Z,557.1
2023-03-26T06:12:34.467Z,557.3
2023-03-26T06:14:18.228Z,557.6
2023-03-26T06:16:01.875Z,557.4
2023-03-26T06:17:45.570Z,556.5
2023-03-26T06:19:29.259Z,554.2
2023-03-26T06:21:12.965Z,550.9
2023-03-26T06:22:56.694Z,549.3
2023-03-26T06:24:40.360Z,551.2
2023-03-26T06:26:24.064Z,555.5
2023-03-26T06:28:07.778Z,559
2023-03-26T06:29:51.470Z,557.6
2023-03-26T06:31:35.220Z,557.8
2023-03-26T06:33:18.876Z,556.6
2023-03-26T06:35:02.573Z,560.1
2023-03-26T06:36:46.296Z,562
2023-03-26T06:38:29.982Z,566.9
2023-03-26T06:40:13.749Z,569.7
2023-03-26T06:41:57.389Z,571.5
2023-03-26T06:43:41.110Z,577.7
2023-03-26T06:45:24.790Z,580.2
2023-03-26T06:47:08.508Z,582.7
2023-03-26T06:48:52.205Z,589.5
2023-03-26T06:50:35.914Z,596.8
2023-03-26T06:52:19.624Z,600.5
2023-03-26T06:54:03.323Z,603.6
2023-03-26T06:55:47.034Z,605.3
2023-03-26T06:57:30.711Z,607.4
2023-03-26T06:59:14.425Z,612.5
2023-03-26T07:00:58.129Z,613.8
2023-03-26T07:02:41.849Z,614.5
2023-03-26T07:04:25.557Z,616.2
2023-03-26T07:06:09.377Z,619.7
2023-03-26T07:07:52.928Z,617.7
2023-03-26T07:09:36.784Z,615.8
2023-03-26T07:11:20.321Z,617.6
2023-03-26T07:13:04.071Z,617.9
2023-03-26T07:14:47.798Z,619.7
2023-03-26T07:16:31.441Z,622.8
2023-03-26T07:18:15.140Z,624
2023-03-26T07:19:58.892Z,619.2
2023-03-26T07:21:42.636Z,615.8
2023-03-26T07:23:26.256Z,617.8
2023-03-26T07:25:09.940Z,617.8
2023-03-26T07:26:53.750Z,617.4
2023-03-26T07:28:37.348Z,617.4
2023-03-26T07:30:21.123Z,617.4
2023-03-26T07:32:04.742Z,613.9
2023-03-26T07:33:48.446Z,611.9
2023-03-26T07:35:32.258Z,611.1
2023-03-26T07:38:59.544Z,606.6
2023-03-26T07:40:43.260Z,606.3
2023-03-26T07:42:26.950Z,608.8
2023-03-26T07:44:10.650Z,607.1
2023-03-26T07:45:54.413Z,605.7
2023-03-26T07:47:38.096Z,607.5
2023-03-26T07:49:21.801Z,607
2023-03-26T07:51:05.445Z,605.7
2023-03-26T07:52:49.150Z,606.1
2023-03-26T07:54:32.921Z,603.7
2023-03-26T07:56:16.561Z,603.4
2023-03-26T07:59:43.948Z,602.6
2023-03-26T08:01:27.668Z,598.1
2023-03-26T08:04:55.072Z,593
2023-03-26T08:06:38.763Z,593.4
2023-03-26T08:08:22.451Z,595.4
2023-03-26T08:10:06.178Z,593.1
2023-03-26T08:11:49.873Z,593.2
2023-03-26T08:13:33.562Z,593.8
2023-03-26T08:15:17.250Z,593.8
2023-03-26T08:17:00.974Z,591.4
2023-03-26T08:18:44.683Z,590.7
2023-03-26T08:20:28.460Z,590.1
2023-03-26T08:22:12.050Z,589.9
2023-03-26T08:23:55.756Z,589.5
2023-03-26T08:25:39.487Z,588.4
2023-03-26T08:27:23.243Z,585.7
2023-03-26T08:29:06.860Z,585.6
2023-03-26T08:30:50.660Z,586.5
2023-03-26T08:32:34.274Z,584.5
2023-03-26T08:34:18.085Z,584.9
2023-03-26T08:36:01.777Z,584.1
2023-03-26T08:37:45.397Z,584.7
2023-03-26T08:39:29.076Z,585.6
2023-03-26T08:41:12.784Z,584.9
2023-03-26T08:42:56.545Z,586.4
2023-03-26T08:44:40.250Z,588.8
2023-03-26T08:46:23.876Z,591.9
2023-03-26T08:48:07.640Z,596.6
2023-03-26T08:49:51.310Z,599
2023-03-26T08:51:34.978Z,599.9
2023-03-26T08:53:18.698Z,599.7
2023-03-26T08:55:02.380Z,598.6
2023-03-26T08:56:46.098Z,599.6
2023-03-26T08:58:29.790Z,601.5
2023-03-26T09:00:13.531Z,601.5
2023-03-26T09:01:57.189Z,604.1
2023-03-26T09:03:41.033Z,609
2023-03-26T09:05:24.704Z,609.9
2023-03-26T09:07:08.405Z,612.6
2023-03-26T09:08:52.019Z,619.5
2023-03-26T09:10:35.726Z,625.6
2023-03-26T09:12:19.418Z,627.4
2023-03-26T09:14:03.246Z,629.3
2023-03-26T09:15:46.855Z,632.5
2023-03-26T09:17:30.579Z,634.7
2023-03-26T09:19:14.273Z,638.5
2023-03-26T09:20:57.961Z,641.3
2023-03-26T09:22:41.637Z,643
2023-03-26T09:24:25.385Z,648.3
2023-03-26T09:26:09.057Z,652.5
2023-03-26T09:27:52.745Z,654
2023-03-26T09:29:36.433Z,656.7
2023-03-26T09:31:20.164Z,656
2023-03-26T09:33:03.855Z,658.7
2023-03-26T09:34:47.557Z,658.6
2023-03-26T09:36:31.250Z,660.9
2023-03-26T09:38:14.961Z,665.2
2023-03-26T09:39:58.666Z,665.9
2023-03-26T09:41:42.402Z,662.9
2023-03-26T09:43:26.047Z,664.6
2023-03-26T09:45:09.777Z,670.1
2023-03-26T09:46:53.457Z,674
2023-03-26T09:48:37.177Z,682.8
2023-03-26T09:50:20.845Z,686.1
2023-03-26T09:52:04.586Z,688.6
2023-03-26T09:53:48.255Z,690.8
2023-03-26T09:55:31.977Z,694.4
2023-03-26T09:57:15.858Z,695.1
2023-03-26T09:58:59.379Z,696.3
2023-03-26T10:02:26.800Z,702.7
2023-03-26T10:04:10.706Z,705
2023-03-26T10:05:54.251Z,707.1
2023-03-26T10:07:37.981Z,707.3
2023-03-26T10:09:21.762Z,708.2
2023-03-26T10:11:05.556Z,709.4
2023-03-26T10:12:49.091Z,710.8
2023-03-26T10:14:32.750Z,714.8
2023-03-26T10:18:00.123Z,724.4
2023-03-26T10:19:43.799Z,730.5
2023-03-26T10:21:27.534Z,735.2
2023-03-26T10:24:54.924Z,738.6
2023-03-26T10:26:38.630Z,741.7
2023-03-26T10:28:22.344Z,745.8
2023-03-26T10:30:06.019Z,747.7
2023-03-26T10:31:49.714Z,750.7
2023-03-26T10:33:33.418Z,754.5
2023-03-26T10:35:17.136Z,759.8
2023-03-26T10:37:00.820Z,763.4
2023-03-26T10:38:44.515Z,763.3
2023-03-26T10:40:28.227Z,763.8
2023-03-26T10:42:11.938Z,768
2023-03-26T10:43:55.630Z,775.2
2023-03-26T10:45:39.398Z,781.6
2023-03-26T10:47:23.062Z,786.3
2023-03-26T10:49:06.795Z,790.5
2023-03-26T10:50:50.440Z,797.9
2023-03-26T10:52:34.157Z,807.6
2023-03-26T10:54:17.856Z,816.5
2023-03-26T10:56:01.561Z,828.1
2023-03-26T10:57:45.261Z,837.1
2023-03-26T10:59:28.966Z,845.6
2023-03-26T11:01:12.659Z,852
2023-03-26T11:02:56.378Z,856.6
2023-03-26T11:04:40.061Z,866.6
2023-03-26T11:06:23.760Z,883.8
2023-03-26T11:08:07.511Z,896.7
2023-03-26T11:09:51.190Z,904.6
2023-03-26T11:11:34.857Z,912.8
2023-03-26T11:13:18.582Z,920.9
2023-03-26T11:15:02.281Z,931.9
2023-03-26T11:16:45.996Z,936.9
2023-03-26T11:18:29.756Z,937.3
2023-03-26T11:20:13.507Z,978.8
2023-03-26T11:21:57.147Z,995.7
2023-03-26T11:23:40.827Z,1018.9
2023-03-26T11:25:24.495Z,1021.7
2023-03-26T11:27:08.218Z,1027.7
2023-03-26T11:28:51.993Z,1039.3
2023-03-26T11:30:35.770Z,1059.6
2023-03-26T11:32:19.484Z,1099
2023-03-26T11:34:03.064Z,1125
2023-03-26T11:35:46.746Z,1130.7
2023-03-26T11:37:30.388Z,1139.3
2023-03-26T11:39:14.099Z,1147.7
2023-03-26T11:40:57.988Z,1171.7
2023-03-26T11:42:41.516Z,1221.1
2023-03-26T11:44:25.210Z,1268.4
2023-03-26T11:46:08.912Z,1274.9
2023-03-26T11:47:52.623Z,1278.8
2023-03-26T11:49:36.298Z,1274.7
2023-03-26T11:51:20.051Z,1288.2
2023-03-26T11:53:03.716Z,1313.9
2023-03-26T11:54:47.429Z,1318.5
2023-03-26T11:56:31.111Z,1329.6
2023-03-26T11:58:14.801Z,1332.2
2023-03-26T11:59:58.532Z,1332.7
2023-03-26T12:01:42.221Z,1338.1
2023-03-26T12:03:25.928Z,1343.8
2023-03-26T12:05:09.608Z,1360.1
2023-03-26T12:06:53.393Z,1386.4
2023-03-26T12:08:37.013Z,1420.3
2023-03-26T12:10:20.716Z,1419.1
2023-03-26T12:12:04.418Z,1464.8
2023-03-26T12:13:48.127Z,1482.5
2023-03-26T12:15:31.934Z,1478
2023-03-26T12:17:15.515Z,1471.7
2023-03-26T12:18:59.227Z,1468.3
2023-03-26T12:20:42.930Z,1470.8
2023-03-26T12:22:26.641Z,1470.3
2023-03-26T12:24:10.338Z,1476.4
2023-03-26T12:25:54.052Z,1487.9
2023-03-26T12:27:37.771Z,1496.1
2023-03-26T12:29:21.442Z,1500.4
2023-03-26T12:31:05.153Z,1505.9
2023-03-26T12:32:48.921Z,1506.7
2023-03-26T12:34:32.559Z,1508.4
2023-03-26T12:36:16.238Z,1512.6
2023-03-26T12:38:00.077Z,1532.2
2023-03-26T12:39:43.683Z,1578.7
2023-03-26T12:41:27.361Z,1597.1
2023-03-26T12:43:51.387Z,1600
2023-03-26T12:44:54.942Z,1605.6
2023-03-26T12:46:38.440Z,1622.6
2023-03-26T12:48:22.166Z,1642.4
2023-03-26T12:50:05.865Z,1656.1
2023-03-26T12:51:49.578Z,1674.3
2023-03-26T12:53:33.250Z,1681.7
2023-03-26T12:55:16.952Z,1684.4
2023-03-26T12:57:00.663Z,1553.4
2023-03-26T12:58:44.575Z,1337.2
2023-03-26T13:00:28.184Z,1352.5
2023-03-26T13:02:11.897Z,1378.2
2023-03-26T13:03:55.465Z,1398.1
2023-03-26T13:05:39.182Z,1391.4
2023-03-26T13:07:22.920Z,1400.9
2023-03-26T13:09:06.574Z,1404.5
2023-03-26T13:10:50.473Z,1412.5
2023-03-26T13:12:33.997Z,1418.2
2023-03-26T13:14:17.682Z,1421.6
2023-03-26T13:16:01.375Z,1430.3
2023-03-26T13:17:45.075Z,1434.7
2023-03-26T13:19:28.836Z,1429.3
2023-03-26T13:21:12.527Z,1418.2
2023-03-26T13:22:56.228Z,1410.9
2023-03-26T13:24:39.925Z,1391.4
2023-03-26T13:26:23.650Z,1386.9
2023-03-26T13:28:07.313Z,1391.9
2023-03-26T13:29:51.045Z,1391.9
2023-03-26T13:31:34.723Z,1385.8
2023-03-26T13:33:18.476Z,1377.8
2023-03-26T13:35:02.123Z,1372.4
2023-03-26T13:36:45.827Z,1354.1
2023-03-26T13:38:29.494Z,1278.8
2023-03-26T13:40:13.258Z,1268.1
2023-03-26T13:41:56.904Z,1251.6
2023-03-26T13:43:40.598Z,1239.3
2023-03-26T13:45:24.326Z,1237.4
2023-03-26T13:47:08.036Z,1235.8
2023-03-26T13:48:51.712Z,1234.6
2023-03-26T13:50:35.413Z,1231.3
2023-03-26T13:52:19.148Z,1229.6
2023-03-26T13:54:02.812Z,1226.1
2023-03-26T13:55:46.494Z,1231.3
2023-03-26T13:57:30.210Z,1227.4
2023-03-26T13:59:13.912Z,1228.5
2023-03-26T14:00:57.629Z,1234.2
2023-03-26T14:02:41.328Z,1233.8
2023-03-26T14:04:25.019Z,1234.7
2023-03-26T14:06:08.732Z,1233.5
2023-03-26T14:07:52.416Z,1227.1
2023-03-26T14:09:36.135Z,1219.3
2023-03-26T14:11:19.837Z,1203
2023-03-26T14:13:03.533Z,1199.5
2023-03-26T14:14:47.282Z,1198.6
2023-03-26T14:16:30.973Z,1194.3
2023-03-26T14:18:14.712Z,1195.6
2023-03-26T14:19:58.351Z,1204.6
2023-03-26T14:21:42.114Z,1221.7
2023-03-26T14:23:25.802Z,1263.7
2023-03-26T14:25:09.536Z,1303.6
2023-03-26T14:26:53.198Z,1345.2
2023-03-26T14:28:36.829Z,1367.4
2023-03-26T14:30:20.535Z,1373.6
2023-03-26T14:32:04.229Z,1385
2023-03-26T14:33:47.927Z,1400.6
2023-03-26T14:35:31.719Z,1435.3
2023-03-26T14:37:15.348Z,1465.8
2023-03-26T14:38:59.066Z,1531.2
2023-03-26T14:40:42.740Z,1533
2023-03-26T14:42:26.452Z,1533.4
2023-03-26T14:44:10.162Z,1553.1
2023-03-26T14:45:53.842Z,1561.4
2023-03-26T14:47:37.553Z,1574.2
2023-03-26T14:49:21.251Z,1584
2023-03-26T14:51:04.971Z,1592.5
2023-03-26T14:52:48.672Z,1612.3
2023-03-26T14:54:32.364Z,1650.4
2023-03-26T14:56:16.070Z,1655.9
2023-03-26T14:57:59.777Z,1647.1
2023-03-26T14:59:43.493Z,1669.1
2023-03-26T15:03:10.871Z,1738.6
2023-03-26T15:04:54.600Z,1720
2023-03-26T15:06:38.301Z,1715.5
2023-03-26T15:08:22.000Z,1724.1
2023-03-26T15:10:05.671Z,1766.4
2023-03-26T15:11:49.402Z,1769.9
2023-03-26T15:13:33.107Z,1769.7
2023-03-26T15:15:16.785Z,1781.7
2023-03-26T15:17:00.494Z,1780
2023-03-26T15:18:44.216Z,1784.7
2023-03-26T15:20:27.907Z,1783.6
2023-03-26T15:22:11.616Z,1783
2023-03-26T15:23:55.415Z,1812.8
2023-03-26T15:25:39.035Z,1846.2
2023-03-26T15:27:22.752Z,1927.7
2023-03-26T15:29:06.440Z,1906.7
2023-03-26T15:30:50.152Z,1885.4
2023-03-26T15:32:33.818Z,1879.2
2023-03-26T15:34:17.542Z,1865.3
2023-03-26T15:36:01.277Z,1775.6
2023-03-26T15:37:44.943Z,1738.5
2023-03-26T15:39:28.657Z,1754.9
2023-03-26T15:41:12.344Z,1820.1
2023-03-26T15:42:56.054Z,1903.6
2023-03-26T15:44:39.774Z,1935.6
2023-03-26T15:46:23.473Z,1923.4
2023-03-26T15:48:07.139Z,1914.2
2023-03-26T15:49:50.879Z,1905.3
2023-03-26T15:51:34.571Z,1907.5
2023-03-26T15:53:22.347Z,1969.7
2023-03-26T15:55:06.051Z,1957.8
2023-03-26T15:56:49.750Z,1928.1
2023-03-26T15:58:33.442Z,1928.3
2023-03-26T16:00:17.180Z,1917.9
2023-03-26T16:02:00.874Z,1890.5
2023-03-26T16:03:44.574Z,1875.9
2023-03-26T16:05:28.294Z,1882.5
2023-03-26T16:07:11.977Z,1821.3
2023-03-26T16:08:55.685Z,1793.9
2023-03-26T16:10:39.398Z,1770.2
2023-03-26T16:12:23.062Z,1728.2
2023-03-26T16:14:06.771Z,1722.4
2023-03-26T16:15:50.482Z,1715.7
2023-03-26T16:17:34.198Z,1707.4
2023-03-26T16:19:17.890Z,1701.4
2023-03-26T16:21:01.591Z,1696.4
2023-03-26T16:22:45.294Z,1691
2023-03-26T16:24:29.096Z,1689
2023-03-26T16:26:12.709Z,1683.4
2023-03-26T16:27:56.407Z,1678.7
2023-03-26T16:29:40.086Z,1670.2
2023-03-26T16:31:23.811Z,1667.2
2023-03-26T16:33:07.503Z,1666.5
2023-03-26T16:34:51.216Z,1670
2023-03-26T16:36:34.929Z,1668.4
2023-03-26T16:38:18.637Z,1664.4
2023-03-26T16:40:02.334Z,1657.5
2023-03-26T16:41:46.020Z,1652.7
2023-03-26T16:43:29.722Z,1649.8
2023-03-26T16:45:13.412Z,1643.7
2023-03-26T16:46:57.124Z,1639.4
2023-03-26T16:48:40.828Z,1635.3
2023-03-26T16:50:24.509Z,1633.4
2023-03-26T16:52:08.228Z,1629.9
2023-03-26T16:53:51.942Z,1626.6
2023-03-26T16:55:35.649Z,1622.4
2023-03-26T16:57:19.393Z,1622.9
2023-03-26T16:59:03.061Z,1621.3
2023-03-26T17:00:46.793Z,1615.5
2023-03-26T17:02:30.454Z,1612.3
2023-03-26T17:04:14.150Z,1611.7
2023-03-26T17:05:57.837Z,1610.7
2023-03-26T17:07:41.558Z,1611.7
2023-03-26T17:09:25.265Z,1612.9
2023-03-26T17:11:08.978Z,1614.7
2023-03-26T17:12:52.649Z,1618.7
2023-03-26T17:14:36.355Z,1619
2023-03-26T17:16:20.066Z,1624.1
2023-03-26T17:18:03.758Z,1629.6
2023-03-26T17:19:47.464Z,1632.1
2023-03-26T17:21:31.169Z,1632.6
2023-03-26T17:23:14.865Z,1630.4
2023-03-26T17:24:58.603Z,1627.7
2023-03-26T17:26:42.301Z,1626.1
2023-03-26T17:28:25.992Z,1624.9
2023-03-26T17:30:09.662Z,1624
2023-03-26T17:31:53.374Z,1626.3
2023-03-26T17:33:37.071Z,1625
2023-03-26T17:35:20.791Z,1621.1
2023-03-26T17:37:04.481Z,1614.5
2023-03-26T17:38:48.185Z,1612
2023-03-26T17:40:31.892Z,1607.4
2023-03-26T17:42:15.619Z,1606.3
2023-03-26T17:43:59.299Z,1603.9
2023-03-26T17:45:43.003Z,1596.7
2023-03-26T17:47:26.704Z,1591.1
2023-03-26T17:49:10.399Z,1577.4
2023-03-26T17:50:54.128Z,1570.2
2023-03-26T17:52:37.816Z,1566.9
2023-03-26T17:54:21.525Z,1566.7
2023-03-26T17:56:05.399Z,1564.8
2023-03-26T17:57:48.936Z,1566
2023-03-26T17:59:32.619Z,1570
2023-03-26T18:01:16.336Z,1567.8
2023-03-26T18:03:00.050Z,1551.7
2023-03-26T18:04:43.776Z,1533.7
2023-03-26T18:06:27.424Z,1513.8
2023-03-26T18:08:11.130Z,1504.5
2023-03-26T18:09:54.829Z,1497.8
2023-03-26T18:11:38.530Z,1491.9
2023-03-26T18:13:22.229Z,1483.6
2023-03-26T18:15:05.936Z,1479.6
2023-03-26T18:16:49.632Z,1470.8
2023-03-26T18:18:33.347Z,1465.4
2023-03-26T18:20:17.020Z,1461.9
2023-03-26T18:22:00.750Z,1455.8
2023-03-26T18:23:44.464Z,1449.3
2023-03-26T18:25:28.146Z,1443
2023-03-26T18:27:11.841Z,1422.9
2023-03-26T18:28:55.543Z,1417.6
2023-03-26T18:30:39.262Z,1414.4
2023-03-26T18:32:22.953Z,1410.4
2023-03-26T18:34:06.653Z,1411.3
2023-03-26T18:35:50.366Z,1411.8
2023-03-26T18:37:34.060Z,1411.4
2023-03-26T18:39:17.764Z,1413.6
2023-03-26T18:41:01.454Z,1415.1
2023-03-26T18:42:45.164Z,1413.1
2023-03-26T18:44:28.868Z,1409.4
2023-03-26T18:46:12.593Z,1406.9
2023-03-26T18:47:56.266Z,1404.8
2023-03-26T18:49:39.970Z,1406.3
2023-03-26T18:51:23.681Z,1406.8
2023-03-26T18:53:07.369Z,1408.5
2023-03-26T18:54:51.059Z,1410.2
2023-03-26T18:56:34.779Z,1413.7
2023-03-26T18:58:18.473Z,1417.5
2023-03-26T19:00:02.179Z,1417.3
2023-03-26T19:01:45.936Z,1417.2
2023-03-26T19:03:29.589Z,1415.5
2023-03-26T19:05:13.298Z,1413.5
2023-03-26T19:06:56.992Z,1411.8
2023-03-26T19:08:40.736Z,1414.8
2023-03-26T19:10:24.396Z,1427.4
2023-03-26T19:12:08.092Z,1432.5
2023-03-26T19:13:51.938Z,1427.5
2023-03-26T19:15:35.495Z,1414
2023-03-26T19:17:19.195Z,1406.4
2023-03-26T19:19:02.895Z,1396.2
2023-03-26T19:20:46.638Z,1387.6
2023-03-26T19:22:30.314Z,1377.9
2023-03-26T19:24:14.004Z,1372
2023-03-26T19:25:57.695Z,1371
2023-03-26T19:27:41.394Z,1367.2
2023-03-26T19:29:25.099Z,1362.9
2023-03-26T19:31:08.828Z,1363.3
2023-03-26T19:32:52.525Z,1363.1
2023-03-26T19:34:36.215Z,1366.3
2023-03-26T19:36:19.922Z,1367.4
2023-03-26T19:38:03.627Z,1364.4
2023-03-26T19:39:47.311Z,1358.9
2023-03-26T19:41:31.234Z,1354.4
2023-03-26T19:43:14.917Z,1355.1
2023-03-26T19:44:58.582Z,1349.9
2023-03-26T19:46:42.293Z,1345.6
2023-03-26T19:48:25.933Z,1342.8
2023-03-26T19:50:09.738Z,1340.1
2023-03-26T19:51:53.383Z,1337.5
2023-03-26T19:53:37.088Z,1333.1
2023-03-26T19:55:20.809Z,1324.9
2023-03-26T19:57:04.423Z,1325.4
2023-03-26T19:58:48.255Z,1331.5
2023-03-26T20:00:31.751Z,1338.3
2023-03-26T20:02:15.539Z,1339.2
2023-03-26T20:03:59.376Z,1327.2
2023-03-26T20:05:43.057Z,1317.5
2023-03-26T20:07:26.679Z,1315
2023-03-26T20:09:10.399Z,1311
2023-03-26T20:10:53.966Z,1307.6
2023-03-26T20:12:37.878Z,1307.1
2023-03-26T20:14:21.574Z,1303.8
2023-03-26T20:16:05.094Z,1304.6
2023-03-26T20:17:49.037Z,1303.7
2023-03-26T20:19:32.481Z,1301.9
2023-03-26T20:21:16.364Z,1302.3
2023-03-26T20:23:00.049Z,1302.3
2023-03-26T20:24:43.850Z,1302.4
2023-03-26T20:26:27.402Z,1300.1
2023-03-26T20:28:11.153Z,1296.6
2023-03-26T20:29:54.705Z,1293.4
2023-03-26T20:31:38.397Z,1290.8
2023-03-26T20:33:22.257Z,1287.7
2023-03-26T20:35:05.785Z,1287.7
2023-03-26T20:36:49.503Z,1283.4
2023-03-26T20:38:33.220Z,1278.8
2023-03-26T20:40:16.911Z,1279.8
2023-03-26T20:42:00.744Z,1277.1
2023-03-26T20:43:44.307Z,1277.1
2023-03-26T20:45:27.989Z,1274.9
2023-03-26T20:47:11.773Z,1273.5
2023-03-26T20:48:55.404Z,1276
2023-03-26T20:50:39.112Z,1275.9
2023-03-26T20:52:22.973Z,1273.2
2023-03-26T20:54:06.676Z,1268.1
2023-03-26T20:55:50.282Z,1264
2023-03-26T20:57:33.915Z,1259.6
2023-03-26T20:59:17.602Z,1258.3
2023-03-26T21:02:45.006Z,1246.8
2023-03-26T21:04:28.787Z,1239
2023-03-26T21:06:12.420Z,1228.6
2023-03-26T21:07:56.123Z,1221.4
2023-03-26T21:09:39.877Z,1216.4
2023-03-26T21:11:23.505Z,1209.8
2023-03-26T21:13:07.227Z,1208.5
2023-03-26T21:14:51.018Z,1202.8
2023-03-26T21:16:34.632Z,1190.4
2023-03-26T21:18:18.339Z,1185.2
2023-03-26T21:20:02.046Z,1183.4
2023-03-26T21:21:45.742Z,1178.4
2023-03-26T21:23:29.451Z,1173.3
2023-03-26T21:25:13.138Z,1171
2023-03-26T21:26:56.896Z,1165.6
2023-03-26T21:28:40.589Z,1154.7
2023-03-26T21:30:24.249Z,1141.9
2023-03-26T21:32:08.010Z,1136.6
2023-03-26T21:33:51.800Z,1127.8
2023-03-26T21:35:35.345Z,1118.7
2023-03-26T21:37:19.053Z,1111.3
2023-03-26T21:39:02.799Z,1105.2
2023-03-26T21:40:46.464Z,1100.3
2023-03-26T21:42:30.153Z,1097
2023-03-26T21:44:13.910Z,1089.7
2023-03-26T21:45:57.572Z,1087.2
2023-03-26T21:47:41.255Z,1081.1
2023-03-26T21:49:24.968Z,1072.8
2023-03-26T21:51:08.673Z,1066.8
2023-03-26T21:52:52.359Z,1061.1
2023-03-26T21:54:36.078Z,1054
2023-03-26T21:56:19.769Z,1048.7
2023-03-26T21:58:03.490Z,1046.5
2023-03-26T21:59:47.221Z,1046.1
2023-03-26T22:01:30.996Z,1041.8
2023-03-26T22:03:14.641Z,1036.6
2023-03-26T22:04:58.278Z,1032.2
2023-03-26T22:06:41.981Z,1025.1
2023-03-26T22:08:25.686Z,1018.3
2023-03-26T22:10:09.375Z,1014.1
2023-03-26T22:11:53.138Z,1010.7
2023-03-26T22:13:36.775Z,1004.5
2023-03-26T22:15:20.497Z,1004.7